Time;durP1;ratioP1;P1;durP2;ratioP2;P2;SDS_P1;SDS_P2;PMS_P1;PMS_P2;Temp;Humidity;BMP_temperature;BMP_pressure;BME280_temperature;BME280_humidity;BME280_pressure;Samples;Min_cycle;Max_cycle;Signal;HPM_P1;HPM_P2
2023/07/20 00:01:18;;;;;;;6.35;3.40;;;;;;;23.45;69.16;99770.63;10500078;28;20041;-73
2023/07/20 00:06:19;;;;;;;6.50;3.97;;;;;;;23.81;69.19;99833.94;10498922;28;20039;-73
2023/07/20 00:11:20;;;;;;;5.00;3.40;;;;;;;23.19;69.57;99743.47;10499050;28;20036;-73
2023/07/20 00:16:21;;;;;;;5.50;3.05;;;;;;;22.97;69.83;99721.16;10498386;28;20049;-73
2023/07/20 00:21:23;;;;;;;6.63;3.50;;;;;;;23.68;69.93;99839.84;10498983;28;20060;-72
2023/07/20 00:26:27;;;;;;;7.80;3.35;;;;;;;23.56;70.11;99834.63;10499042;28;20071;-72
2023/07/20 00:31:29;;;;;;;9.57;3.80;;;;;;;23.27;71.01;99790.09;10498254;28;20048;-73
2023/07/20 00:36:30;;;;;;;5.45;3.17;;;;;;;23.46;70.90;99840.84;10497528;28;20037;-73
2023/07/20 00:41:31;;;;;;;4.28;3.08;;;;;;;23.24;71.41;99819.38;10497763;28;20044;-73
2023/07/20 00:46:32;;;;;;;10.88;3.60;;;;;;;23.22;72.14;99821.50;10497850;28;20051;-73
2023/07/20 00:51:33;;;;;;;6.35;3.33;;;;;;;23.12;72.39;99828.75;10497734;28;20064;-73
2023/07/20 00:56:34;;;;;;;6.45;4.03;;;;;;;22.75;72.85;99772.75;10496556;28;20041;-73
2023/07/20 01:01:35;;;;;;;10.73;3.72;;;;;;;23.01;73.65;99822.50;10497427;28;20048;-74
2023/07/20 01:06:50;;;;;;;10.15;3.65;;;;;;;23.26;73.77;99865.16;10496684;28;20625;-73
2023/07/20 01:11:59;;;;;;;40.22;5.25;;;;;;;22.80;73.99;99789.03;10497365;28;20055;-73
2023/07/20 01:17:01;;;;;;;7.72;3.55;;;;;;;23.15;74.29;99864.28;10496546;28;20086;-73
2023/07/20 01:22:12;;;;;;;9.25;4.22;;;;;;;22.65;74.64;99797.88;10496494;28;20045;-73
2023/07/20 01:27:31;;;;;;;20.65;4.70;;;;;;;23.18;76.28;99882.75;10495951;28;20114;-73
2023/07/20 01:32:33;;;;;;;10.90;3.70;;;;;;;23.12;74.81;99886.47;10496481;28;20041;-73
2023/07/20 01:37:34;;;;;;;8.43;3.30;;;;;;;23.10;74.38;99888.66;10496174;28;20071;-73
2023/07/20 01:42:35;;;;;;;8.00;3.58;;;;;;;23.05;73.83;99891.31;10499824;28;20078;-74
2023/07/20 01:47:36;;;;;;;7.53;3.15;;;;;;;22.75;73.82;99860.22;10533244;28;20094;-73
2023/07/20 01:52:37;;;;;;;7.43;3.40;;;;;;;22.99;74.06;99905.91;10527516;28;20056;-73
2023/07/20 01:57:38;;;;;;;5.85;3.35;;;;;;;22.89;73.71;99892.28;10495081;28;20047;-73
2023/07/20 02:02:38;;;;;;;7.07;3.13;;;;;;;23.03;73.34;99901.59;10502229;28;20040;-73
2023/07/20 02:07:39;;;;;;;8.90;3.67;;;;;;;23.00;73.22;99893.97;10500472;28;20047;-73
2023/07/20 02:12:40;;;;;;;8.18;3.60;;;;;;;23.22;73.02;99912.84;10495750;28;20514;-73
2023/07/20 02:17:41;;;;;;;4.43;2.75;;;;;;;23.01;72.35;99880.19;10496908;28;20044;-74
2023/07/20 02:22:41;;;;;;;5.20;3.38;;;;;;;23.12;72.19;99902.72;10517769;28;20557;-74
2023/07/20 02:27:42;;;;;;;8.27;3.53;;;;;;;23.34;72.19;99934.31;10530740;28;20039;-74
2023/07/20 02:32:45;;;;;;;5.28;3.25;;;;;;;23.06;71.99;99875.88;10494402;28;20041;-73
2023/07/20 02:37:46;;;;;;;5.93;3.00;;;;;;;23.29;72.17;99885.50;10508229;28;20471;-73
2023/07/20 02:42:46;;;;;;;31.08;4.22;;;;;;;23.80;71.85;99934.56;10536137;28;20071;-73
2023/07/20 02:47:47;;;;;;;23.92;4.05;;;;;;;23.84;71.84;99903.09;10536423;28;20043;-74
2023/07/20 02:52:48;;;;;;;28.65;3.85;;;;;;;23.61;72.26;99848.22;10511480;28;20504;-74
2023/07/20 02:57:49;;;;;;;15.25;4.22;;;;;;;24.07;72.14;99926.22;10524669;28;20484;-74
2023/07/20 03:02:55;;;;;;;12.57;4.15;;;;;;;24.21;72.80;99940.13;10544000;28;20410;-75
2023/07/20 03:07:56;;;;;;;28.65;4.57;;;;;;;25.30;69.40;99915.44;10516350;28;20064;-74
2023/07/20 03:12:56;;;;;;;9.80;3.83;;;;;;;24.95;67.55;99814.66;10501829;28;20072;-73
2023/07/20 03:17:58;;;;;;;10.38;3.92;;;;;;;25.69;67.47;99921.00;10500828;28;20041;-74
2023/07/20 03:22:59;;;;;;;10.98;4.03;;;;;;;26.18;65.94;99918.34;10501254;28;20126;-74
2023/07/20 03:27:59;;;;;;;12.75;4.43;;;;;;;26.54;65.16;99950.00;10501282;28;20136;-74
2023/07/20 03:33:00;;;;;;;13.85;4.30;;;;;;;25.78;66.66;99934.84;10500607;28;20044;-73
2023/07/20 03:38:01;;;;;;;23.42;4.70;;;;;;;25.39;67.79;99960.81;10482140;28;20048;-73
2023/07/20 03:43:02;;;;;;;35.75;5.38;;;;;;;25.18;68.83;99941.00;10522282;28;20073;-74
2023/07/20 03:48:02;;;;;;;24.65;4.50;;;;;;;24.99;68.46;99929.88;10514228;28;20514;-74
2023/07/20 03:53:03;;;;;;;9.85;4.30;;;;;;;25.79;67.05;99988.19;10539045;28;20063;-73
2023/07/20 03:58:05;;;;;;;10.75;4.15;;;;;;;26.95;63.17;99930.56;10535391;28;20117;-74
2023/07/20 04:03:06;;;;;;;9.38;3.53;;;;;;;28.46;60.03;99982.91;10525925;28;20073;-75
2023/07/20 04:08:07;;;;;;;9.75;3.22;;;;;;;29.40;55.87;99965.47;10530683;28;20047;-75
2023/07/20 04:13:08;;;;;;;8.35;3.45;;;;;;;29.98;54.63;99964.88;10536661;28;20043;-76
2023/07/20 04:18:08;;;;;;;13.20;3.42;;;;;;;30.73;52.66;99957.19;10526467;28;20047;-75
2023/07/20 04:23:09;;;;;;;7.90;3.40;;;;;;;31.25;51.19;99918.28;10522403;28;20040;-76
2023/07/20 04:28:10;;;;;;;8.73;3.30;;;;;;;31.62;49.66;99930.72;10524599;28;20418;-75
2023/07/20 04:33:11;;;;;;;6.00;2.75;;;;;;;32.53;48.21;100000.56;10521484;28;20043;-74
2023/07/20 04:38:11;;;;;;;6.45;2.97;;;;;;;32.46;47.64;99981.81;10528023;28;20417;-75
2023/07/20 04:43:13;;;;;;;8.63;3.50;;;;;;;32.43;47.38;100000.88;10499190;28;20048;-75
2023/07/20 04:48:15;;;;;;;42.13;5.05;;;;;;;32.08;48.30;99997.25;10478868;28;20040;-74
2023/07/20 04:53:16;;;;;;;12.05;3.92;;;;;;;31.14;48.36;99951.50;10509465;28;20060;-80
2023/07/20 04:58:18;;;;;;;10.45;3.88;;;;;;;30.99;48.23;99984.78;10533149;28;20380;-83
2023/07/20 05:03:19;;;;;;;11.02;3.78;;;;;;;30.76;48.72;99996.88;10539676;28;20446;-82
2023/07/20 05:08:22;;;;;;;8.52;4.05;;;;;;;30.29;50.34;100013.56;10539618;28;20098;-83
2023/07/20 05:13:23;;;;;;;5.55;4.13;;;;;;;30.46;48.83;99969.06;10520201;28;20038;-87
2023/07/20 05:18:24;;;;;;;8.73;4.03;;;;;;;29.82;49.39;99932.66;10538648;28;20451;-80
2023/07/20 05:23:25;;;;;;;10.32;4.25;;;;;;;28.87;51.10;99895.59;10537799;28;20127;-81
2023/07/20 05:28:27;;;;;;;8.55;4.32;;;;;;;28.94;51.58;99919.78;10537714;28;20039;-80
2023/07/20 05:33:28;;;;;;;7.73;4.37;;;;;;;28.72;52.43;99897.75;10538314;28;20036;-81
2023/07/20 05:38:28;;;;;;;19.02;4.32;;;;;;;29.58;52.21;99977.44;10538077;28;20043;-84
2023/07/20 05:43:30;;;;;;;8.60;4.55;;;;;;;29.47;52.65;99954.94;10537597;28;20043;-82
2023/07/20 05:48:30;;;;;;;8.35;4.20;;;;;;;29.33;51.36;99869.31;10537788;28;20038;-82
2023/07/20 05:53:31;;;;;;;4.80;3.80;;;;;;;30.21;51.02;99981.41;10538082;28;20393;-81
2023/07/20 05:58:32;;;;;;;6.75;4.63;;;;;;;29.42;51.10;99875.69;10537455;28;20143;-80
2023/07/20 06:03:34;;;;;;;6.60;4.03;;;;;;;29.99;51.02;99985.66;10537762;28;20040;-79
2023/07/20 06:08:34;;;;;;;6.03;4.50;;;;;;;29.66;51.56;99927.50;10537321;28;20035;-79
2023/07/20 06:13:35;;;;;;;8.88;4.70;;;;;;;29.75;50.77;99931.13;10519303;28;20036;-79
2023/07/20 06:18:36;;;;;;;8.15;4.72;;;;;;;29.20;51.15;99870.13;10536531;28;20039;-77
2023/07/20 06:23:37;;;;;;;5.90;4.47;;;;;;;29.70;52.09;99980.50;10536633;28;20040;-82
2023/07/20 06:28:37;;;;;;;5.72;4.50;;;;;;;29.76;52.33;99962.88;10519808;28;20040;-80
2023/07/20 06:33:38;;;;;;;5.60;4.50;;;;;;;30.03;51.38;99983.13;10540022;28;20484;-77
2023/07/20 06:38:39;;;;;;;5.82;4.97;;;;;;;29.48;50.94;99858.06;10526294;28;20036;-80
2023/07/20 06:43:39;;;;;;;7.30;4.55;;;;;;;30.20;50.26;99938.66;10526690;28;20040;-82
2023/07/20 06:48:40;;;;;;;7.50;4.53;;;;;;;30.19;49.11;99920.63;10544801;28;20097;-81
2023/07/20 06:53:41;;;;;;;6.13;4.05;;;;;;;30.39;48.68;99914.66;10544753;28;20054;-79
2023/07/20 06:58:42;;;;;;;21.92;9.70;;;;;;;30.35;47.42;99921.09;10544317;28;20040;-78
2023/07/20 07:03:43;;;;;;;5.55;4.55;;;;;;;30.47;47.59;99926.81;10543392;28;20089;-76
2023/07/20 07:08:44;;;;;;;8.93;4.93;;;;;;;30.56;45.71;99929.63;10544155;28;20079;-81
2023/07/20 07:13:46;;;;;;;8.15;4.00;;;;;;;30.56;44.41;99902.22;10542909;28;20127;-80
2023/07/20 07:18:50;;;;;;;13.52;4.25;;;;;;;30.80;44.14;99924.66;10543375;28;20395;-79
2023/07/20 07:23:52;;;;;;;9.73;3.92;;;;;;;30.55;44.32;99865.78;10543054;28;20051;-78
2023/07/20 07:28:53;;;;;;;11.68;4.10;;;;;;;31.00;43.40;99923.34;10543045;28;20066;-82
2023/07/20 07:33:55;;;;;;;7.57;4.63;;;;;;;31.09;43.67;99926.13;10542804;28;20523;-78
2023/07/20 07:38:55;;;;;;;12.07;4.97;;;;;;;30.29;44.09;99826.44;10542023;28;20122;-76
2023/07/20 07:43:56;;;;;;;14.35;4.65;;;;;;;30.48;44.78;99904.59;10541361;28;20052;-80
2023/07/20 07:48:57;;;;;;;8.10;4.00;;;;;;;30.82;43.06;99889.50;10542032;28;20039;-82
2023/07/20 07:53:57;;;;;;;4.95;3.78;;;;;;;30.63;42.46;99847.75;10524180;28;20040;-79
2023/07/20 07:58:58;;;;;;;8.20;4.57;;;;;;;30.68;41.81;99894.22;10541128;28;20036;-78
2023/07/20 08:23:51;;;;;;;8.32;4.10;;;;;;;31.11;40.93;99902.75;10482446;28;20406;-78
2023/07/20 08:28:52;;;;;;;11.15;3.85;;;;;;;31.31;39.99;99860.19;10482531;28;20136;-78
2023/07/20 08:33:53;;;;;;;6.55;3.85;;;;;;;31.60;39.88;99856.09;10482925;28;20047;-78
2023/07/20 08:38:54;;;;;;;5.75;3.88;;;;;;;31.95;38.93;99856.97;10482390;28;20047;-79
2023/07/20 08:43:57;;;;;;;19.42;4.30;;;;;;;32.17;38.95;99822.22;10481785;28;20089;-82
2023/07/20 08:48:58;;;;;;;9.32;3.70;;;;;;;32.14;38.98;99889.59;10481872;28;20116;-79
2023/07/20 08:54:00;;;;;;;7.07;3.50;;;;;;;31.78;39.24;99885.19;10481712;28;20044;-80
2023/07/20 08:59:01;;;;;;;6.00;3.72;;;;;;;31.68;38.77;99836.09;10482526;28;20037;-78
2023/07/20 09:04:02;;;;;;;9.63;3.90;;;;;;;32.11;38.29;99849.03;10481708;28;20037;-80
2023/07/20 09:09:03;;;;;;;10.20;3.67;;;;;;;32.21;38.02;99799.22;10481748;28;20476;-80
2023/07/20 09:14:06;;;;;;;7.28;3.63;;;;;;;32.65;37.56;99870.66;10480914;28;20036;-82
2023/07/20 09:19:07;;;;;;;7.32;3.38;;;;;;;32.90;36.68;99882.72;10481744;28;20057;-78
2023/07/20 09:24:07;;;;;;;7.35;3.35;;;;;;;32.68;36.99;99845.25;10456786;28;20041;-78
2023/07/20 09:29:10;;;;;;;7.53;3.40;;;;;;;32.17;37.61;99875.22;10453813;28;20078;-79
2023/07/20 09:34:10;;;;;;;27.60;4.13;;;;;;;32.01;38.46;99876.81;10452529;28;20072;-81
2023/07/20 09:39:12;;;;;;;6.97;3.70;;;;;;;31.62;37.55;99837.38;10451160;28;20045;-81
2023/07/20 09:44:15;;;;;;;7.13;3.47;;;;;;;31.63;38.45;99871.94;10452472;28;20041;-81
2023/07/20 09:49:17;;;;;;;13.57;3.90;;;;;;;31.22;38.73;99826.41;10453559;28;20487;-78
2023/07/20 09:54:21;;;;;;;16.13;4.13;;;;;;;32.36;37.17;99863.88;10441061;28;20132;-82
2023/07/20 09:59:22;;;;;;;9.52;3.55;;;;;;;32.94;36.57;99858.94;10436558;28;20078;-81
2023/07/20 10:04:24;;;;;;;11.07;3.80;;;;;;;32.53;36.47;99747.59;10438551;28;20047;-84
2023/07/20 10:09:27;;;;;;;8.30;3.60;;;;;;;33.18;35.65;99853.66;10434139;28;20072;-81
2023/07/20 10:14:30;;;;;;;;;;;;;;;33.51;36.28;99858.53;10440152;28;20048;-86
2023/07/20 10:19:46;;;;;;;7.43;3.60;;;;;;;33.27;34.67;99839.06;10434503;28;20276;-84
2023/07/20 10:24:47;;;;;;;8.90;3.50;;;;;;;32.30;35.40;99716.75;10434841;28;20054;-81
2023/07/20 10:29:50;;;;;;;4.68;3.17;;;;;;;32.83;34.94;99731.94;10436999;28;20520;-88
2023/07/20 10:34:55;;;;;;;12.77;3.33;;;;;;;33.48;34.97;99786.78;10423384;28;20033;-89
2023/07/20 10:39:56;;;;;;;20.85;4.40;;;;;;;33.75;34.69;99779.94;10432515;28;20037;-89
2023/07/20 10:44:57;;;;;;;3.80;3.27;;;;;;;33.18;35.14;99782.09;10429989;28;20043;-85
2023/07/20 10:50:02;;;;;;;8.52;3.25;;;;;;;32.54;35.10;99826.19;10431977;28;20043;-85
2023/07/20 10:55:16;;;;;;;5.45;3.38;;;;;;;32.10;35.37;99819.97;10430055;28;20041;-83
2023/07/20 11:00:22;;;;;;;5.70;3.30;;;;;;;31.44;36.15;99761.59;10434440;28;20043;-84
2023/07/20 11:05:39;;;;;;;7.60;3.40;;;;;;;32.42;36.49;99828.78;10436250;28;20033;-83
2023/07/20 11:10:40;;;;;;;9.32;3.33;;;;;;;32.29;35.62;99721.47;10429620;28;20068;-85
2023/07/20 11:15:56;;;;;;;8.70;3.55;;;;;;;32.33;35.59;99749.09;10430222;28;20061;-87
2023/07/20 11:20:57;;;;;;;7.25;3.17;;;;;;;31.79;35.25;99694.56;10435420;28;20394;-86
2023/07/20 11:26:00;;;;;;;11.70;3.38;;;;;;;32.55;34.95;99822.31;10428438;28;20084;-84
2023/07/20 11:31:00;;;;;;;7.78;3.83;;;;;;;32.79;34.77;99805.25;10435733;28;20044;-83
2023/07/20 11:36:01;;;;;;;5.20;3.03;;;;;;;33.24;34.62;99810.25;10428686;28;20045;-85
2023/07/20 11:41:05;;;;;;;6.22;3.28;;;;;;;32.66;33.27;99671.50;10435549;27;20045;-83
2023/07/20 11:46:06;;;;;;;8.50;3.80;;;;;;;33.17;33.41;99730.94;10423100;28;20049;-83
2023/07/20 11:51:13;;;;;;;8.55;3.60;;;;;;;33.38;32.96;99721.88;10423441;28;20041;-82
2023/07/20 11:56:14;;;;;;;7.88;3.60;;;;;;;33.16;34.21;99781.63;10426970;28;20045;-82
2023/07/20 12:01:17;;;;;;;13.52;3.38;;;;;;;32.92;33.20;99748.41;10432149;28;20044;-85
2023/07/20 12:06:18;;;;;;;7.38;3.45;;;;;;;33.23;32.97;99748.06;10433292;28;20125;-82
2023/07/20 12:11:35;;;;;;;9.85;3.33;;;;;;;33.25;32.41;99707.25;10416916;28;20057;-79
2023/07/20 12:16:38;;;;;;;13.48;3.78;;;;;;;33.52;32.75;99776.72;10442616;28;20086;-79
2023/07/20 12:21:42;;;;;;;12.45;2.92;;;;;;;33.49;33.10;99783.66;10447765;28;20048;-77
2023/07/20 12:45:51;;;;;;;4.82;3.17;;;;;;;31.95;33.73;99758.06;10435193;28;20408;-79
2023/07/20 12:50:52;;;;;;;13.95;3.40;;;;;;;31.96;33.84;99731.41;10397057;28;20041;-79
2023/07/20 12:55:53;;;;;;;12.48;3.13;;;;;;;32.58;32.65;99772.19;10399425;28;20087;-80
2023/07/20 13:00:54;;;;;;;7.57;2.85;;;;;;;32.67;32.67;99719.91;10388001;28;20060;-76
2023/07/20 13:05:55;;;;;;;11.20;3.15;;;;;;;33.33;31.96;99761.44;10385030;28;20086;-77
2023/07/20 13:10:55;;;;;;;7.20;3.22;;;;;;;32.82;32.08;99724.81;10384179;28;20094;-77
2023/07/20 13:15:56;;;;;;;9.57;3.30;;;;;;;32.76;32.73;99745.41;10381146;28;20046;-76
2023/07/20 13:20:57;;;;;;;9.45;3.38;;;;;;;33.00;32.07;99766.84;10394343;28;20037;-77
2023/07/20 13:25:58;;;;;;;9.10;3.17;;;;;;;33.04;32.08;99732.00;10392464;28;20046;-77
2023/07/20 13:31:01;;;;;;;12.93;3.88;;;;;;;33.41;32.43;99754.25;10398264;28;20061;-77
2023/07/20 13:36:02;;;;;;;12.05;2.97;;;;;;;33.44;31.42;99739.81;10377690;28;20493;-79
2023/07/20 13:41:03;;;;;;;15.85;3.17;;;;;;;33.58;31.35;99732.13;10377023;28;20053;-78
2023/07/20 13:46:03;;;;;;;15.15;3.67;;;;;;;33.52;30.73;99705.13;10356035;28;20041;-79
2023/07/20 13:51:04;;;;;;;13.65;3.40;;;;;;;33.77;30.84;99761.91;10349850;28;20045;-80
2023/07/20 13:56:05;;;;;;;7.45;3.22;;;;;;;33.63;30.77;99756.72;10362249;28;20056;-80
2023/07/20 14:01:06;;;;;;;8.18;3.30;;;;;;;33.43;30.07;99713.44;10354954;28;20041;-79
2023/07/20 14:06:06;;;;;;;12.98;3.15;;;;;;;33.48;30.83;99738.00;10351020;28;20489;-80
2023/07/20 14:11:07;;;;;;;7.03;3.30;;;;;;;33.40;31.25;99753.44;10346689;28;20034;-79
2023/07/20 14:16:08;;;;;;;18.83;4.18;;;;;;;33.28;31.22;99709.34;10378574;28;20042;-79
2023/07/20 14:21:09;;;;;;;5.50;2.70;;;;;;;33.23;30.56;99697.72;10369497;28;20132;-77
2023/07/20 14:26:10;;;;;;;8.90;3.10;;;;;;;33.66;30.15;99765.44;10370217;28;20136;-78
2023/07/20 14:31:11;;;;;;;8.90;3.15;;;;;;;33.60;29.99;99745.56;10370190;28;20523;-78
2023/07/20 14:36:11;;;;;;;40.30;8.40;;;;;;;33.73;31.33;99746.41;10369071;28;20041;-78
2023/07/20 14:41:12;;;;;;;9.27;4.30;;;;;;;33.64;30.05;99730.75;10367869;28;20516;-78
2023/07/20 14:46:13;;;;;;;10.75;5.53;;;;;;;33.41;29.76;99694.47;10368838;28;20076;-78
2023/07/20 14:51:14;;;;;;;8.45;3.42;;;;;;;33.45;30.50;99757.97;10369865;28;20073;-82
2023/07/20 14:56:15;;;;;;;14.27;4.28;;;;;;;32.78;31.04;99679.84;10367694;28;20053;-78
2023/07/20 15:01:15;;;;;;;41.38;5.90;;;;;;;32.74;30.96;99703.66;10369113;28;20133;-79
2023/07/20 15:06:16;;;;;;;15.57;3.83;;;;;;;32.97;30.87;99731.69;10384364;28;20042;-79
2023/07/20 15:11:17;;;;;;;14.60;4.18;;;;;;;32.97;31.17;99753.72;10368166;28;20102;-78
2023/07/20 15:16:18;;;;;;;23.60;5.75;;;;;;;32.94;31.50;99760.69;10368222;28;20491;-79
2023/07/20 15:21:19;;;;;;;18.52;6.15;;;;;;;32.73;31.46;99755.13;10368020;28;20049;-79
2023/07/20 15:26:20;;;;;;;18.35;9.30;;;;;;;32.53;31.43;99750.34;10344483;28;20046;-79
2023/07/20 15:31:23;;;;;;;18.33;6.88;;;;;;;32.45;31.69;99764.94;10354244;28;20034;-79
2023/07/20 15:36:23;;;;;;;;;;;;;;;32.40;31.61;99776.06;10343613;28;20038;-79
2023/07/20 15:41:24;;;;;;;41.05;23.75;;;;;;;31.08;31.69;99683.06;10343839;28;19925;-78
2023/07/20 15:46:44;;;;;;;74.97;47.33;;;;;;;31.44;31.79;99783.53;10345058;28;20171;-79
2023/07/20 15:51:46;;;;;;;64.60;42.17;;;;;;;30.73;32.66;99710.41;10346246;28;20449;-79
2023/07/20 15:56:48;;;;;;;49.17;27.33;;;;;;;30.95;32.30;99783.56;10340809;28;20040;-78
2023/07/20 16:01:49;;;;;;;22.35;12.98;;;;;;;30.63;32.65;99760.03;10343599;28;20513;-79
2023/07/20 16:06:50;;;;;;;37.08;10.88;;;;;;;29.97;33.41;99681.19;10336303;28;20038;-78
2023/07/20 16:11:51;;;;;;;15.38;6.20;;;;;;;30.31;33.82;99772.94;10361639;28;20037;-78
2023/07/20 16:16:51;;;;;;;20.58;5.38;;;;;;;29.87;34.97;99749.91;10366747;28;20132;-78
2023/07/20 16:21:52;;;;;;;46.83;7.45;;;;;;;29.62;36.19;99756.00;10348936;28;20038;-79
2023/07/20 16:26:53;;;;;;;67.72;16.35;;;;;;;29.10;37.61;99727.00;10343783;28;20038;-81
2023/07/20 16:31:54;;;;;;;133.73;37.15;;;;;;;29.03;39.53;99775.81;10350681;28;20049;-79
2023/07/20 16:36:56;;;;;;;338.45;95.25;;;;;;;28.55;40.99;99780.84;10359465;28;20460;-79
2023/07/20 16:41:57;;;;;;;370.27;112.93;;;;;;;28.02;42.12;99751.94;10365507;28;20085;-77
2023/07/20 16:46:57;;;;;;;116.05;25.98;;;;;;;27.95;41.95;99795.19;10348757;28;20132;-79
2023/07/20 16:51:58;;;;;;;50.40;16.83;;;;;;;27.64;39.92;99738.34;10354793;28;20106;-80
2023/07/20 16:56:59;;;;;;;47.00;19.10;;;;;;;27.86;39.12;99775.94;10358063;28;20038;-78
2023/07/20 17:02:00;;;;;;;64.72;32.53;;;;;;;27.98;39.23;99813.72;10351502;28;20042;-78
2023/07/20 17:07:01;;;;;;;123.03;60.95;;;;;;;27.80;39.68;99803.63;10355334;28;20041;-79
2023/07/20 17:12:02;;;;;;;106.70;48.70;;;;;;;27.48;39.99;99773.19;10355000;28;20091;-80
2023/07/20 17:17:03;;;;;;;40.88;18.13;;;;;;;27.54;40.01;99806.66;10353765;28;20083;-79
2023/07/20 17:22:04;;;;;;;68.40;28.55;;;;;;;27.09;40.38;99754.31;10364345;28;20046;-78
2023/07/20 17:27:16;;;;;;;60.67;23.45;;;;;;;27.04;40.61;99768.84;10351727;28;20038;-78
2023/07/20 17:32:16;;;;;;;75.95;28.83;;;;;;;27.38;40.58;99835.25;10381449;28;20038;-78
2023/07/20 17:37:20;;;;;;;39.90;15.00;;;;;;;26.85;40.46;99763.31;10364433;28;20562;-76
2023/07/20 17:42:21;;;;;;;29.75;10.75;;;;;;;27.31;40.56;99850.06;10358959;28;20202;-77
2023/07/20 17:47:22;;;;;;;28.40;9.55;;;;;;;26.98;40.89;99807.34;10361898;28;20046;-79
2023/07/20 17:52:23;;;;;;;39.67;17.35;;;;;;;27.08;40.78;99853.56;10358841;28;20041;-78
2023/07/20 17:57:24;;;;;;;78.93;52.03;;;;;;;26.95;41.14;99851.53;10359564;28;20132;-78
2023/07/20 18:02:27;;;;;;;39.40;20.10;;;;;;;26.40;41.54;99789.91;10357821;28;20053;-77
2023/07/20 18:07:27;;;;;;;34.35;15.40;;;;;;;26.66;41.59;99827.84;10363895;28;20038;-77
2023/07/20 18:12:29;;;;;;;40.00;18.75;;;;;;;26.61;42.36;99842.31;10357318;28;20030;-78
2023/07/20 18:17:30;;;;;;;36.88;10.63;;;;;;;26.31;42.28;99807.97;10355243;28;20409;-78
2023/07/20 18:22:31;;;;;;;42.90;18.30;;;;;;;26.34;43.75;99831.91;10350623;28;20046;-77
2023/07/20 18:27:32;;;;;;;17.65;7.65;;;;;;;26.43;42.48;99843.00;10347752;28;20506;-77
2023/07/20 18:32:33;;;;;;;25.48;9.85;;;;;;;26.31;43.71;99834.38;10349675;28;20049;-78
2023/07/20 18:37:34;;;;;;;16.25;5.15;;;;;;;26.28;43.53;99845.84;10350879;28;20083;-77
2023/07/20 18:42:35;;;;;;;14.70;4.90;;;;;;;25.94;45.20;99816.72;10345326;28;20057;-77
2023/07/20 18:47:35;;;;;;;19.55;4.13;;;;;;;25.93;45.23;99834.91;10356886;28;20053;-77
2023/07/20 18:52:39;;;;;;;14.82;4.85;;;;;;;25.52;48.19;99820.72;10365468;28;20034;-74
2023/07/20 18:57:40;;;;;;;22.45;7.78;;;;;;;25.38;47.49;99838.75;10364741;28;20054;-73
2023/07/20 19:02:41;;;;;;;15.80;4.60;;;;;;;25.06;47.85;99813.53;10368155;28;20075;-73
2023/07/20 19:07:42;;;;;;;22.13;4.40;;;;;;;25.17;48.21;99838.00;10365370;28;20075;-74
2023/07/20 19:12:43;;;;;;;11.70;4.40;;;;;;;25.03;48.96;99843.97;10368915;28;20121;-74
2023/07/20 19:17:44;;;;;;;28.67;4.72;;;;;;;24.63;49.44;99798.72;10368249;28;20077;-74
2023/07/20 19:22:45;;;;;;;18.25;4.70;;;;;;;24.47;50.46;99783.50;10368038;28;20132;-74
2023/07/20 19:27:46;;;;;;;24.80;3.75;;;;;;;24.57;50.76;99822.34;10368196;28;20523;-74
2023/07/20 19:32:46;;;;;;;18.63;4.47;;;;;;;24.38;51.12;99819.34;10367422;28;20523;-74
2023/07/20 19:37:47;;;;;;;10.48;4.32;;;;;;;23.86;52.25;99749.03;10367535;28;20093;-73
2023/07/20 19:42:49;;;;;;;28.83;6.70;;;;;;;23.84;53.85;99789.16;10366983;28;20050;-73
2023/07/20 19:47:50;;;;;;;12.90;5.55;;;;;;;23.97;54.53;99831.25;10367096;28;20046;-73
2023/07/20 19:52:51;;;;;;;25.83;6.63;;;;;;;23.87;54.69;99821.19;10367982;28;20064;-73
2023/07/20 19:57:52;;;;;;;13.68;4.95;;;;;;;23.57;54.46;99828.16;10368689;28;20041;-74
2023/07/20 20:02:53;;;;;;;17.67;4.82;;;;;;;23.34;55.60;99798.81;10489025;28;20047;-74
2023/07/20 20:07:53;;;;;;;10.93;5.43;;;;;;;23.14;56.91;99803.03;10580349;28;20039;-74
2023/07/20 20:12:54;;;;;;;12.27;4.95;;;;;;;23.00;57.86;99816.25;10579604;28;20528;-74
2023/07/20 20:17:57;;;;;;;13.98;4.63;;;;;;;23.04;59.01;99840.94;10579479;28;20039;-74
2023/07/20 20:22:58;;;;;;;12.43;4.50;;;;;;;23.01;59.24;99850.38;10578594;28;20043;-73
2023/07/20 20:27:59;;;;;;;11.35;3.97;;;;;;;22.19;59.28;99739.91;10579897;28;20085;-74
2023/07/20 20:33:00;;;;;;;8.10;4.00;;;;;;;22.74;59.27;99847.75;10567988;28;20048;-74
2023/07/20 20:38:00;;;;;;;13.20;3.78;;;;;;;22.44;58.92;99809.66;10365905;28;20424;-74
2023/07/20 20:43:02;;;;;;;15.75;4.20;;;;;;;22.57;59.75;99836.25;10366279;28;20062;-73
2023/07/20 20:48:07;;;;;;;17.50;4.32;;;;;;;22.09;59.06;99770.38;10366639;28;20405;-74
2023/07/20 20:53:09;;;;;;;13.15;3.97;;;;;;;22.44;58.80;99847.53;10367193;28;20130;-72
2023/07/20 20:58:09;;;;;;;13.68;4.05;;;;;;;22.37;58.90;99853.13;10373844;28;20561;-73
2023/07/20 21:03:10;;;;;;;13.90;4.53;;;;;;;21.70;58.65;99765.16;10372451;28;20048;-73
2023/07/20 21:08:15;;;;;;;8.27;3.50;;;;;;;22.15;58.46;99844.28;10458778;28;20042;-73
2023/07/20 21:13:15;;;;;;;14.10;3.97;;;;;;;22.09;59.67;99840.69;10372415;28;20046;-73
2023/07/20 21:18:16;;;;;;;12.13;4.35;;;;;;;21.89;59.81;99806.16;10372536;28;20443;-73
2023/07/20 21:23:20;;;;;;;10.20;3.35;;;;;;;22.02;59.18;99829.28;10371823;28;20046;-73
2023/07/20 21:28:21;;;;;;;7.82;3.90;;;;;;;22.12;59.24;99845.59;10371602;28;20077;-74
2023/07/20 21:33:22;;;;;;;11.27;3.88;;;;;;;22.00;59.27;99831.41;10388220;28;20144;-74
2023/07/20 21:38:22;;;;;;;13.85;3.53;;;;;;;21.60;59.98;99773.97;10371161;28;20493;-74
2023/07/20 21:43:23;;;;;;;11.25;3.38;;;;;;;21.76;59.77;99804.69;10371614;28;20062;-74
2023/07/20 21:48:24;;;;;;;14.60;4.15;;;;;;;21.56;60.73;99747.69;10371608;28;20129;-74
2023/07/20 21:53:25;;;;;;;7.10;3.70;;;;;;;22.19;60.68;99851.63;10371476;28;20563;-73
2023/07/20 21:58:25;;;;;;;15.45;3.78;;;;;;;22.35;60.05;99855.31;10371201;28;20087;-73
2023/07/20 22:03:26;;;;;;;17.08;4.40;;;;;;;22.47;58.99;99858.66;10370574;28;20405;-73
2023/07/20 22:08:27;;;;;;;19.55;4.35;;;;;;;22.41;59.53;99848.88;10370168;28;20042;-74
2023/07/20 22:13:28;;;;;;;18.30;6.80;;;;;;;22.31;58.82;99806.28;10371261;28;20050;-73
2023/07/20 22:18:29;;;;;;;22.77;9.07;;;;;;;22.61;59.44;99829.22;10369003;28;20087;-73
2023/07/20 22:23:31;;;;;;;27.63;12.35;;;;;;;22.88;58.86;99850.81;10369908;28;20053;-73
2023/07/20 22:28:32;;;;;;;21.52;11.43;;;;;;;22.75;57.38;99816.88;10369600;28;20398;-73
2023/07/20 22:33:33;;;;;;;13.35;5.40;;;;;;;23.01;55.78;99841.47;10369919;28;20033;-73
2023/07/20 22:38:33;;;;;;;30.15;17.08;;;;;;;23.23;54.04;99858.34;10369743;28;20034;-74
2023/07/20 22:43:34;;;;;;;28.27;8.93;;;;;;;23.13;52.93;99804.13;10370040;28;20149;-74
2023/07/20 22:48:37;;;;;;;18.40;10.55;;;;;;;23.14;52.09;99781.38;10369034;28;20042;-74
2023/07/20 22:53:38;;;;;;;13.57;7.73;;;;;;;23.32;51.36;99788.22;10369734;28;20038;-74
2023/07/20 22:58:39;;;;;;;8.93;4.43;;;;;;;23.65;50.61;99832.22;10369501;28;20069;-73
2023/07/20 23:03:39;;;;;;;9.38;3.03;;;;;;;23.40;50.30;99792.31;10368560;28;20075;-74
2023/07/20 23:08:41;;;;;;;4.45;2.60;;;;;;;23.03;49.58;99741.75;10368462;28;20045;-75
2023/07/20 23:13:42;;;;;;;7.68;2.75;;;;;;;23.62;49.28;99841.72;10368423;28;20037;-73
2023/07/20 23:18:43;;;;;;;4.63;2.28;;;;;;;23.24;47.83;99739.94;10366317;28;20110;-76
2023/07/20 23:23:44;;;;;;;4.53;2.60;;;;;;;23.43;47.38;99757.34;10367865;28;20106;-76
2023/07/20 23:28:46;;;;;;;5.25;2.20;;;;;;;23.96;46.50;99814.16;10367984;28;20041;-75
2023/07/20 23:33:46;;;;;;;6.88;2.20;;;;;;;24.01;46.93;99808.72;10367662;28;20054;-76
2023/07/20 23:38:47;;;;;;;6.78;2.72;;;;;;;23.78;46.40;99763.97;10368342;28;20046;-75
2023/07/20 23:43:50;;;;;;;4.32;2.50;;;;;;;24.15;45.97;99828.03;10367787;28;20091;-75
2023/07/20 23:48:50;;;;;;;7.05;2.10;;;;;;;24.09;45.69;99805.50;10367732;28;20091;-74